Time;durP1;ratioP1;P1;durP2;ratioP2;P2;SDS_P1;SDS_P2;PMS_P1;PMS_P2;Temp;Humidity;BMP_temperature;BMP_pressure;BME280_temperature;BME280_humidity;BME280_pressure;Samples;Min_cycle;Max_cycle;Signal;HPM_P1;HPM_P2
2022/04/04 00:00:56;;;;;;;0.20;0.20;;;;;;;18.85;36.15;101555.78;5124233;28;20139;-29
2022/04/04 00:03:21;;;;;;;0.20;0.20;;;;;;;18.85;36.19;101561.31;5105802;28;20044;-29
2022/04/04 00:05:48;;;;;;;0.20;0.20;;;;;;;18.86;35.90;101565.72;5120171;28;20557;-28
2022/04/04 00:08:14;;;;;;;0.20;0.20;;;;;;;18.86;36.24;101560.19;5124695;28;20045;-29
2022/04/04 00:10:40;;;;;;;0.20;0.20;;;;;;;18.86;36.05;101566.53;5125199;28;20089;-29
2022/04/04 00:13:06;;;;;;;0.20;0.20;;;;;;;18.87;36.07;101559.09;5105310;28;20105;-29
2022/04/04 00:15:32;;;;;;;0.20;0.20;;;;;;;18.85;36.07;101550.25;5127250;28;20047;-28
2022/04/04 00:18:04;;;;;;;0.20;0.20;;;;;;;18.85;36.01;101553.84;5125462;28;20385;-29
2022/04/04 00:20:30;;;;;;;0.20;0.20;;;;;;;18.86;36.06;101549.16;5126170;28;20078;-29
2022/04/04 00:22:56;;;;;;;0.20;0.20;;;;;;;18.85;36.10;101551.09;5120935;28;20047;-28
2022/04/04 00:25:21;;;;;;;0.28;0.28;;;;;;;18.85;36.12;101541.97;5127168;28;20043;-29
2022/04/04 00:27:48;;;;;;;0.20;0.20;;;;;;;18.86;36.03;101543.63;5128487;28;20042;-29
2022/04/04 00:30:14;;;;;;;0.20;0.20;;;;;;;18.86;35.95;101538.13;5123483;27;20179;-29
2022/04/04 00:32:39;;;;;;;0.20;0.20;;;;;;;18.85;35.99;101531.78;5124459;28;20540;-29
2022/04/04 00:35:05;;;;;;;0.20;0.20;;;;;;;18.84;36.06;101532.06;5127462;28;20045;-29
2022/04/04 00:37:32;;;;;;;0.20;0.20;;;;;;;18.84;35.99;101532.06;5124918;28;20081;-30
2022/04/04 00:39:58;;;;;;;0.20;0.20;;;;;;;18.86;36.13;101535.38;5120581;28;20071;-29
2022/04/04 00:42:23;;;;;;;0.20;0.20;;;;;;;18.85;36.05;101534.53;5125094;27;20045;-29
2022/04/04 00:44:51;;;;;;;0.20;0.20;;;;;;;18.86;36.05;101529.84;5127918;28;20047;-29
2022/04/04 00:47:17;;;;;;;0.20;0.20;;;;;;;18.85;35.91;101523.50;5126826;28;20090;-29
2022/04/04 00:49:42;;;;;;;0.30;0.30;;;;;;;18.86;36.05;101525.16;5125222;28;20318;-29
2022/04/04 00:52:08;;;;;;;0.20;0.20;;;;;;;18.85;36.12;101523.50;5118686;28;20047;-29
2022/04/04 00:54:34;;;;;;;0.20;0.20;;;;;;;18.86;36.06;101521.56;5127219;27;20416;-30
2022/04/04 00:57:01;;;;;;;0.20;0.20;;;;;;;18.86;36.16;101518.81;5124818;28;20068;-28
2022/04/04 00:59:27;;;;;;;0.30;0.30;;;;;;;18.85;36.02;101515.22;5126102;28;20078;-29
2022/04/04 01:01:53;;;;;;;0.20;0.20;;;;;;;18.86;36.13;101507.75;5122564;28;20134;-29
2022/04/04 01:04:18;;;;;;;0.20;0.20;;;;;;;18.86;36.15;101507.75;5104391;28;20061;-29
2022/04/04 01:06:44;;;;;;;0.20;0.20;;;;;;;18.84;36.16;101502.53;5124072;28;20043;-29
2022/04/04 01:09:17;;;;;;;0.20;0.20;;;;;;;18.85;35.97;101495.06;5125930;28;20035;-29
2022/04/04 01:12:05;;;;;;;0.30;0.30;;;;;;;18.85;35.93;101495.06;5126907;28;20122;-29
2022/04/04 01:14:31;;;;;;;;;;;;;;;18.85;36.02;101498.66;5108519;28;20109;-29
2022/04/04 01:16:56;;;;;;;0.20;0.20;;;;;;;18.84;36.04;101493.41;5125268;28;19923;-29
2022/04/04 01:19:22;;;;;;;0.22;0.22;;;;;;;18.83;35.91;101491.75;5119730;28;20043;-29
2022/04/04 01:21:48;;;;;;;0.30;0.30;;;;;;;18.86;36.03;101488.44;5128328;28;20040;-29
2022/04/04 01:24:17;;;;;;;0.20;0.20;;;;;;;18.84;36.26;101479.63;5127582;28;20059;-29
2022/04/04 01:26:47;;;;;;;0.20;0.20;;;;;;;18.84;36.19;101474.94;5108873;28;20097;-29
2022/04/04 01:29:12;;;;;;;0.20;0.20;;;;;;;18.85;36.16;101473.00;5106579;28;20087;-29
2022/04/04 01:31:38;;;;;;;0.30;0.30;;;;;;;18.85;36.00;101468.31;5109041;28;20039;-29
2022/04/04 01:34:04;;;;;;;0.30;0.30;;;;;;;18.84;35.95;101463.88;5122628;28;20136;-29
2022/04/04 01:36:30;;;;;;;0.20;0.20;;;;;;;18.85;36.23;101462.78;5125247;27;20094;-29
2022/04/04 01:38:55;;;;;;;0.30;0.30;;;;;;;18.85;36.19;101462.78;5123292;28;20126;-29
2022/04/04 01:41:21;;;;;;;0.25;0.25;;;;;;;18.84;36.01;101458.38;5121826;28;20050;-29
2022/04/04 01:43:47;;;;;;;0.20;0.20;;;;;;;18.85;36.18;101457.25;5126874;28;20047;-29
2022/04/04 01:46:28;;;;;;;0.20;0.20;;;;;;;18.84;35.97;101446.50;5124087;28;20127;-29
2022/04/04 01:48:55;;;;;;;0.30;0.30;;;;;;;18.84;36.17;101446.50;5122064;28;20086;-29
2022/04/04 01:51:21;;;;;;;0.20;0.20;;;;;;;18.83;36.16;101442.91;5108200;28;20129;-29
2022/04/04 01:53:47;;;;;;;0.20;0.20;;;;;;;18.84;35.88;101443.75;5103792;28;20071;-29
2022/04/04 01:56:13;;;;;;;0.20;0.20;;;;;;;18.84;35.83;101443.75;5127703;28;20050;-28
2022/04/04 01:58:40;;;;;;;0.20;0.20;;;;;;;18.84;35.84;101444.56;5109249;28;20540;-29
2022/04/04 02:01:15;;;;;;;0.28;0.28;;;;;;;18.84;36.09;101436.28;5103651;28;20458;-29
2022/04/04 02:03:42;;;;;;;0.20;0.20;;;;;;;18.85;36.13;101432.44;5129822;28;20378;-29
2022/04/04 02:06:07;;;;;;;0.30;0.30;;;;;;;18.84;36.09;101433.53;5127477;28;20449;-28
2022/04/04 02:08:34;;;;;;;0.20;0.20;;;;;;;18.84;36.09;101419.72;5126930;28;20065;-28
2022/04/04 02:11:02;;;;;;;0.20;0.20;;;;;;;18.84;35.93;101416.97;5124958;28;20094;-29
2022/04/04 02:13:28;;;;;;;0.20;0.20;;;;;;;18.84;36.12;101414.22;5128855;28;20082;-29
2022/04/04 02:15:58;;;;;;;0.20;0.20;;;;;;;18.83;36.13;101409.81;5110893;28;20075;-29
2022/04/04 02:18:24;;;;;;;0.20;0.20;;;;;;;18.84;36.34;101408.69;5111064;28;20480;-29
2022/04/04 02:20:50;;;;;;;0.20;0.20;;;;;;;18.84;36.02;101403.19;5103186;28;20141;-29
2022/04/04 02:23:18;;;;;;;0.20;0.20;;;;;;;18.85;36.10;101398.47;5125516;28;20424;-29
2022/04/04 02:25:45;;;;;;;0.20;0.20;;;;;;;18.84;36.17;101392.13;5091348;28;20133;-29
2022/04/04 02:28:11;;;;;;;0.20;0.20;;;;;;;18.84;35.97;101394.91;5094173;28;20055;-29
2022/04/04 02:30:37;;;;;;;0.20;0.20;;;;;;;18.83;35.98;101387.72;5125136;27;20137;-29
2022/04/04 02:33:03;;;;;;;0.20;0.20;;;;;;;18.84;36.00;101386.63;5127000;28;20090;-28
2022/04/04 02:35:29;;;;;;;0.20;0.20;;;;;;;18.85;36.25;101379.16;5110193;28;20039;-29
2022/04/04 02:37:55;;;;;;;0.20;0.20;;;;;;;18.84;36.24;101375.59;5125796;28;20385;-29
2022/04/04 02:40:21;;;;;;;0.20;0.20;;;;;;;18.85;36.27;101376.41;5125020;28;20043;-28
2022/04/04 02:42:47;;;;;;;0.20;0.20;;;;;;;18.85;36.06;101365.38;5127692;28;20142;-29
2022/04/04 02:45:14;;;;;;;0.20;0.20;;;;;;;18.85;36.05;101359.84;5128385;28;20039;-29
2022/04/04 02:47:40;;;;;;;0.20;0.20;;;;;;;18.84;36.09;101358.19;5127864;28;20516;-28
2022/04/04 02:50:06;;;;;;;0.20;0.20;;;;;;;18.83;36.05;101357.38;5127258;28;20051;-28
2022/04/04 02:52:31;;;;;;;0.20;0.20;;;;;;;18.84;36.09;101348.00;5127809;28;20089;-29
2022/04/04 02:54:57;;;;;;;0.20;0.20;;;;;;;18.83;36.10;101343.56;5124145;27;20058;-28
2022/04/04 02:57:23;;;;;;;0.20;0.20;;;;;;;18.85;36.02;101344.13;5127538;28;20047;-29
2022/04/04 02:59:49;;;;;;;0.30;0.30;;;;;;;18.83;36.33;101329.78;5109958;28;20080;-29
2022/04/04 03:02:15;;;;;;;0.30;0.30;;;;;;;18.85;35.91;101332.25;5126276;28;20040;-28
2022/04/04 03:04:42;;;;;;;0.22;0.22;;;;;;;18.85;36.23;101323.97;5126243;27;20043;-29
2022/04/04 03:07:09;;;;;;;0.20;0.20;;;;;;;18.85;36.02;101321.22;5126828;28;20047;-29
2022/04/04 03:09:37;;;;;;;0.30;0.30;;;;;;;18.86;36.10;101320.09;5106977;28;20213;-29
2022/04/04 03:12:04;;;;;;;0.22;0.22;;;;;;;18.84;36.00;101314.03;5105131;28;20345;-29
2022/04/04 03:14:31;;;;;;;0.20;0.20;;;;;;;18.84;35.46;101311.28;5125883;28;20112;-28
2022/04/04 03:16:57;;;;;;;0.30;0.30;;;;;;;18.83;36.04;101312.38;5127225;28;20093;-28
2022/04/04 03:19:23;;;;;;;0.20;0.20;;;;;;;18.84;36.02;101303.00;5124116;28;20043;-29
2022/04/04 03:21:48;;;;;;;0.30;0.30;;;;;;;18.83;36.11;101307.69;5124130;28;20047;-30
2022/04/04 03:24:14;;;;;;;0.20;0.20;;;;;;;18.83;36.07;101296.66;5126586;28;20039;-28
2022/04/04 03:26:43;;;;;;;0.20;0.20;;;;;;;18.84;35.98;101305.75;5130389;28;20066;-28
2022/04/04 03:29:08;;;;;;;0.20;0.20;;;;;;;18.83;36.01;101299.41;5118551;28;20146;-29
2022/04/04 03:31:34;;;;;;;0.30;0.30;;;;;;;18.83;35.92;101296.66;5129673;27;20047;-29
2022/04/04 03:34:00;;;;;;;0.20;0.20;;;;;;;18.82;36.14;101294.97;5124946;28;20047;-29
2022/04/04 03:36:26;;;;;;;0.30;0.30;;;;;;;18.84;36.13;101295.56;5124766;28;20043;-29
2022/04/04 03:38:52;;;;;;;0.30;0.30;;;;;;;18.83;36.02;101282.88;5125522;28;20120;-29
2022/04/04 03:41:18;;;;;;;0.20;0.20;;;;;;;18.84;36.14;101272.66;5123937;28;20085;-29
2022/04/04 03:43:43;;;;;;;0.20;0.20;;;;;;;18.84;36.25;101269.88;5127817;28;20043;-29
2022/04/04 03:46:09;;;;;;;0.22;0.22;;;;;;;18.83;35.88;101259.97;5125583;28;20039;-29
2022/04/04 03:48:35;;;;;;;0.20;0.20;;;;;;;18.84;35.89;101256.91;5126028;28;20049;-28
2022/04/04 03:51:00;;;;;;;0.28;0.28;;;;;;;18.84;36.06;101254.16;5124962;28;20047;-29
2022/04/04 03:53:26;;;;;;;0.20;0.20;;;;;;;18.83;36.01;101249.75;5124450;27;20073;-29
2022/04/04 03:55:52;;;;;;;0.20;0.20;;;;;;;18.84;36.17;101245.06;5127754;28;20043;-29
2022/04/04 03:58:17;;;;;;;0.20;0.20;;;;;;;18.84;36.05;101240.38;5126944;28;20396;-29
2022/04/04 04:00:43;;;;;;;0.20;0.20;;;;;;;18.84;36.21;101234.84;5124374;28;20047;-29
2022/04/04 04:03:09;;;;;;;0.20;0.20;;;;;;;18.83;36.01;101230.44;5126772;28;20047;-29
2022/04/04 04:05:35;;;;;;;0.20;0.20;;;;;;;18.82;35.83;101220.47;5124071;28;20421;-29
2022/04/04 04:08:02;;;;;;;0.20;0.20;;;;;;;18.82;35.86;101222.41;5108140;28;20130;-29
2022/04/04 04:10:28;;;;;;;0.20;0.20;;;;;;;18.83;35.95;101224.09;5127720;28;20149;-29
2022/04/04 04:12:53;;;;;;;0.20;0.20;;;;;;;18.83;36.08;101219.41;5124869;28;20039;-29
2022/04/04 04:15:22;;;;;;;0.30;0.30;;;;;;;18.83;36.03;101213.88;5125824;28;20041;-29
2022/04/04 04:17:51;;;;;;;0.20;0.20;;;;;;;18.82;36.06;101214.94;5126736;27;20090;-29
2022/04/04 04:20:19;;;;;;;0.30;0.30;;;;;;;18.82;36.17;101209.44;5124615;28;20075;-29
2022/04/04 04:22:46;;;;;;;0.20;0.20;;;;;;;18.83;35.82;101200.09;5108373;28;20142;-28
2022/04/04 04:25:14;;;;;;;0.20;0.20;;;;;;;18.83;35.93;101210.28;5093472;28;20287;-29
2022/04/04 04:27:42;;;;;;;0.20;0.20;;;;;;;18.83;36.08;101205.59;5128575;28;20200;-28
2022/04/04 04:30:08;;;;;;;0.20;0.20;;;;;;;18.83;36.10;101196.50;5091032;27;20127;-28
2022/04/04 04:32:34;;;;;;;0.30;0.30;;;;;;;18.84;35.82;101195.38;5126363;28;20104;-29
2022/04/04 04:35:00;;;;;;;0.20;0.20;;;;;;;18.85;35.64;101186.81;5128333;28;20397;-29
2022/04/04 04:37:25;;;;;;;0.20;0.20;;;;;;;18.83;35.67;101172.50;5124227;28;20050;-28
2022/04/04 04:39:52;;;;;;;0.20;0.20;;;;;;;18.83;35.82;101169.72;5124507;28;20058;-28
2022/04/04 04:42:17;;;;;;;0.20;0.20;;;;;;;18.84;35.84;101176.06;5105382;28;20190;-29
2022/04/04 04:44:44;;;;;;;0.20;0.20;;;;;;;18.84;35.71;101176.06;5123595;28;20043;-28
2022/04/04 04:47:10;;;;;;;0.28;0.28;;;;;;;18.83;35.52;101166.16;5126336;28;20134;-29
2022/04/04 04:49:36;;;;;;;0.30;0.30;;;;;;;18.84;35.40;101162.28;5107563;28;20130;-29
2022/04/04 04:52:02;;;;;;;0.20;0.20;;;;;;;18.83;35.63;101166.16;5129012;28;20047;-30
2022/04/04 04:54:30;;;;;;;0.20;0.20;;;;;;;18.83;35.65;101163.38;5127341;27;20595;-29
2022/04/04 04:56:56;;;;;;;0.20;0.20;;;;;;;18.82;35.77;101158.94;5107358;28;20059;-29
2022/04/04 04:59:22;;;;;;;0.20;0.20;;;;;;;18.80;35.66;101151.78;5125596;28;20086;-29
2022/04/04 05:01:48;;;;;;;0.20;0.20;;;;;;;18.81;35.90;101155.34;5125135;28;20071;-29
2022/04/04 05:04:14;;;;;;;0.20;0.20;;;;;;;18.82;35.69;101145.97;5124559;28;20035;-29
2022/04/04 05:06:40;;;;;;;0.30;0.30;;;;;;;18.82;35.89;101145.97;5125246;28;20070;-29
2022/04/04 05:09:06;;;;;;;0.20;0.20;;;;;;;18.83;35.85;101138.56;5123091;28;20122;-29
2022/04/04 05:11:32;;;;;;;0.25;0.25;;;;;;;18.82;35.77;101137.69;5125230;28;20061;-28
2022/04/04 05:13:58;;;;;;;0.20;0.20;;;;;;;18.82;35.75;101132.19;5125540;28;20183;-29
2022/04/04 05:16:28;;;;;;;0.20;0.20;;;;;;;18.82;35.68;101134.94;5122208;28;20051;-29
2022/04/04 05:18:56;;;;;;;0.30;0.30;;;;;;;18.82;35.81;101128.59;5126084;28;20051;-29
2022/04/04 05:21:21;;;;;;;0.30;0.30;;;;;;;18.81;35.51;101130.53;5123007;28;20125;-28
2022/04/04 05:23:47;;;;;;;0.30;0.30;;;;;;;18.81;35.86;101127.78;5126226;28;20458;-29
2022/04/04 05:26:13;;;;;;;0.30;0.30;;;;;;;18.82;35.77;101123.91;5128559;28;20436;-29
2022/04/04 05:28:39;;;;;;;0.30;0.30;;;;;;;18.81;35.55;101133.28;5124807;27;20043;-29
2022/04/04 05:31:05;;;;;;;0.30;0.30;;;;;;;18.80;35.52;101135.22;5109275;28;20082;-28
2022/04/04 05:33:31;;;;;;;0.20;0.20;;;;;;;18.81;35.89;101122.25;5125988;28;20065;-28
2022/04/04 05:35:57;;;;;;;0.30;0.30;;;;;;;18.82;35.98;101126.66;5109923;28;20078;-28
2022/04/04 05:38:22;;;;;;;0.20;0.20;;;;;;;18.80;35.90;101115.91;5110030;28;20521;-29
2022/04/04 05:40:48;;;;;;;0.20;0.20;;;;;;;18.82;35.92;101114.78;5125132;28;20057;-29
2022/04/04 05:43:14;;;;;;;0.30;0.30;;;;;;;18.82;35.80;101120.31;5127389;28;20424;-29
2022/04/04 05:45:39;;;;;;;0.30;0.30;;;;;;;18.82;35.81;101114.78;5123320;28;20054;-29
2022/04/04 05:48:06;;;;;;;0.20;0.20;;;;;;;18.82;35.90;101106.53;5125850;28;20441;-30
2022/04/04 05:50:33;;;;;;;0.20;0.20;;;;;;;18.82;35.78;101109.28;5121820;28;20181;-30
2022/04/04 05:52:59;;;;;;;0.20;0.20;;;;;;;18.82;35.68;101112.03;5123380;28;20549;-28
2022/04/04 05:55:24;;;;;;;0.30;0.30;;;;;;;18.82;35.97;101098.25;5126750;27;20043;-29
2022/04/04 05:57:50;;;;;;;0.30;0.30;;;;;;;18.82;35.75;101101.00;5101036;28;20129;-30
2022/04/04 06:00:16;;;;;;;0.30;0.30;;;;;;;18.81;35.94;101094.66;5122046;28;20050;-30
2022/04/04 06:02:45;;;;;;;0.20;0.20;;;;;;;18.81;35.75;101089.13;5107973;28;20075;-30
2022/04/04 06:05:11;;;;;;;0.20;0.20;;;;;;;18.82;35.85;101092.72;5105279;28;20507;-29
2022/04/04 06:07:38;;;;;;;0.20;0.20;;;;;;;18.82;35.72;101082.50;5110443;28;20082;-30
2022/04/04 06:10:07;;;;;;;0.20;0.20;;;;;;;18.81;35.68;101067.06;5126528;28;20118;-29
2022/04/04 06:12:35;;;;;;;0.30;0.30;;;;;;;18.82;35.82;101067.88;5092839;28;20485;-29
2022/04/04 06:15:01;;;;;;;0.20;0.20;;;;;;;18.83;35.66;101069.56;5129981;27;20081;-30
2022/04/04 06:17:26;;;;;;;0.30;0.30;;;;;;;18.83;35.75;101064.06;5126110;28;20043;-29
2022/04/04 06:19:52;;;;;;;0.20;0.20;;;;;;;18.82;35.71;101063.19;5124957;28;20108;-29
2022/04/04 06:22:18;;;;;;;0.20;0.20;;;;;;;18.82;35.71;101054.09;5127237;28;20744;-29
2022/04/04 06:24:43;;;;;;;0.20;0.20;;;;;;;18.82;35.77;101052.16;5127953;28;20096;-30
2022/04/04 06:27:09;;;;;;;0.30;0.30;;;;;;;18.82;35.56;101046.63;5120658;28;20040;-30
2022/04/04 06:29:35;;;;;;;0.30;0.30;;;;;;;18.81;35.67;101042.22;5107498;28;20050;-29
2022/04/04 06:32:03;;;;;;;0.20;0.20;;;;;;;18.80;35.73;101035.88;5129168;28;20073;-29
2022/04/04 06:34:29;;;;;;;0.20;0.20;;;;;;;18.82;35.82;101035.59;5127185;28;20126;-30
2022/04/04 06:36:55;;;;;;;0.20;0.20;;;;;;;18.83;35.63;101028.19;5124491;28;20074;-29
2022/04/04 06:39:20;;;;;;;0.30;0.30;;;;;;;18.82;35.76;101030.09;5127147;27;20102;-30
2022/04/04 06:41:46;;;;;;;0.22;0.22;;;;;;;18.82;35.64;101019.03;5125577;28;20528;-30
2022/04/04 06:44:12;;;;;;;0.20;0.20;;;;;;;18.83;35.77;101014.38;5125463;28;20050;-30
2022/04/04 06:46:38;;;;;;;0.20;0.20;;;;;;;18.83;35.75;101011.63;5131473;27;20589;-29
2022/04/04 06:49:05;;;;;;;0.20;0.20;;;;;;;18.83;35.88;101000.59;5124672;27;20162;-29
2022/04/04 06:51:32;;;;;;;0.20;0.20;;;;;;;18.82;35.76;100996.97;5122105;28;20083;-30
2022/04/04 06:53:59;;;;;;;0.20;0.20;;;;;;;18.82;35.81;100999.72;5111926;28;20173;-29
2022/04/04 06:56:25;;;;;;;0.20;0.20;;;;;;;18.82;35.72;100985.94;5106506;28;20427;-29
2022/04/04 06:58:52;;;;;;;0.20;0.20;;;;;;;18.82;35.84;100974.06;5123721;28;20040;-30
2022/04/04 07:01:19;;;;;;;0.20;0.20;;;;;;;18.82;35.75;100982.34;5103025;28;20054;-29
2022/04/04 07:03:44;;;;;;;0.30;0.30;;;;;;;18.82;35.86;100974.91;5106054;28;20805;-30
2022/04/04 07:06:10;;;;;;;0.20;0.20;;;;;;;18.82;35.86;100963.88;5114311;28;20046;-30
2022/04/04 07:08:36;;;;;;;0.20;0.20;;;;;;;18.82;35.80;100965.78;5119550;28;20134;-29
2022/04/04 07:11:03;;;;;;;0.20;0.20;;;;;;;18.82;35.78;100966.63;5116206;28;20096;-31
2022/04/04 07:13:31;;;;;;;0.20;0.20;;;;;;;18.83;35.73;100954.50;5100937;27;20089;-29
2022/04/04 07:15:57;;;;;;;0.20;0.20;;;;;;;18.84;35.84;100960.84;5120515;28;20081;-30
2022/04/04 07:18:23;;;;;;;0.30;0.30;;;;;;;18.84;35.49;100945.13;5103651;28;20086;-27
2022/04/04 07:20:48;;;;;;;0.20;0.20;;;;;;;18.85;35.66;100944.00;5116027;28;20039;-28
2022/04/04 07:23:14;;;;;;;0.20;0.20;;;;;;;18.90;35.69;100937.66;5124252;28;20039;-29
2022/04/04 07:25:40;;;;;;;0.20;0.20;;;;;;;18.86;35.83;100940.13;5119153;28;20047;-29
2022/04/04 07:28:06;;;;;;;0.20;0.20;;;;;;;18.88;35.81;100943.47;5120464;28;20043;-28
2022/04/04 07:30:31;;;;;;;0.20;0.20;;;;;;;18.88;35.79;100935.19;5121910;28;20043;-29
2022/04/04 07:32:57;;;;;;;0.20;0.20;;;;;;;18.88;35.64;100935.19;5123341;28;20081;-30
2022/04/04 07:35:23;;;;;;;0.20;0.20;;;;;;;18.88;35.82;100923.31;5126469;28;20375;-29
2022/04/04 07:37:50;;;;;;;0.20;0.20;;;;;;;18.89;35.80;100930.47;5126398;27;20051;-30
2022/04/04 07:40:18;;;;;;;0.30;0.30;;;;;;;18.90;35.63;100926.59;5104404;28;20093;-30
2022/04/04 07:42:44;;;;;;;0.20;0.20;;;;;;;18.89;35.73;100917.50;5122830;28;20516;-29
2022/04/04 07:45:13;;;;;;;0.20;0.20;;;;;;;18.90;35.76;100908.13;5128997;28;20073;-29
2022/04/04 07:47:39;;;;;;;0.20;0.20;;;;;;;18.90;35.71;100910.88;5105126;28;20453;-29
2022/04/04 07:50:07;;;;;;;0.20;0.20;;;;;;;18.90;35.83;100919.16;5100054;28;20102;-29
2022/04/04 07:52:33;;;;;;;0.20;0.20;;;;;;;18.91;35.84;100900.66;5124563;27;20553;-29
2022/04/04 07:54:59;;;;;;;0.20;0.20;;;;;;;18.93;35.84;100903.97;5088589;28;20528;-29
2022/04/04 07:57:25;;;;;;;0.30;0.30;;;;;;;18.94;35.82;100895.41;5124792;28;20201;-28
2022/04/04 07:59:51;;;;;;;0.20;0.20;;;;;;;18.95;35.69;100893.47;5103282;28;20518;-29
2022/04/04 08:02:18;;;;;;;0.20;0.20;;;;;;;18.94;35.86;100884.38;5120829;28;20043;-28
2022/04/04 08:04:44;;;;;;;0.20;0.20;;;;;;;18.96;35.76;100884.13;5121402;28;20039;-29
2022/04/04 08:07:09;;;;;;;0.20;0.20;;;;;;;18.97;35.63;100880.25;5117914;28;20399;-30
2022/04/04 08:09:35;;;;;;;0.30;0.30;;;;;;;18.99;35.84;100875.25;5119298;27;20044;-29
2022/04/04 08:12:01;;;;;;;0.30;0.30;;;;;;;19.00;35.65;100857.59;5116821;28;20060;-30
2022/04/04 08:14:26;;;;;;;0.22;0.22;;;;;;;19.00;35.70;100869.47;5120916;27;20046;-29
2022/04/04 08:16:52;;;;;;;0.20;0.20;;;;;;;19.01;35.60;100870.28;5115204;28;20305;-29
2022/04/04 08:19:18;;;;;;;0.20;0.20;;;;;;;19.02;35.60;100869.19;5118884;28;20053;-29
2022/04/04 08:21:44;;;;;;;0.20;0.20;;;;;;;19.02;35.44;100861.72;5121197;28;20559;-29
2022/04/04 08:24:11;;;;;;;0.20;0.20;;;;;;;19.05;35.52;100863.09;5116133;28;20047;-29
2022/04/04 08:26:37;;;;;;;0.20;0.20;;;;;;;19.04;35.59;100850.38;5117453;28;20035;-29
2022/04/04 08:29:03;;;;;;;0.20;0.20;;;;;;;19.09;35.69;100846.81;5119847;28;20058;-31
2022/04/04 08:31:28;;;;;;;0.20;0.20;;;;;;;19.13;35.64;100853.38;5116020;28;21072;-30
2022/04/04 08:33:54;;;;;;;0.20;0.20;;;;;;;19.14;35.45;100855.06;5112965;27;20043;-29
2022/04/04 08:36:20;;;;;;;0.20;0.20;;;;;;;19.13;35.55;100842.34;5114630;28;20081;-29
2022/04/04 08:38:45;;;;;;;0.20;0.20;;;;;;;19.15;35.62;100848.44;5115285;28;20051;-30
2022/04/04 08:41:11;;;;;;;0.20;0.20;;;;;;;19.14;35.50;100841.25;5114251;28;20043;-30
2022/04/04 08:43:42;;;;;;;0.20;0.20;;;;;;;19.15;35.72;100840.97;5101034;28;20437;-30
2022/04/04 08:46:07;;;;;;;0.20;0.20;;;;;;;19.15;35.63;100827.16;5102869;28;20074;-30
2022/04/04 08:48:35;;;;;;;0.20;0.20;;;;;;;19.14;35.67;100817.25;5123429;28;20051;-30
2022/04/04 08:51:01;;;;;;;0.20;0.20;;;;;;;19.14;35.55;100833.81;5118536;28;20097;-29
2022/04/04 08:53:28;;;;;;;0.20;0.20;;;;;;;19.17;35.65;100824.97;5103096;28;20043;-30
2022/04/04 08:55:56;;;;;;;0.20;0.20;;;;;;;19.25;35.46;100810.53;5120998;28;20131;-33
2022/04/04 08:58:22;;;;;;;0.20;0.20;;;;;;;19.36;35.56;100805.81;5115287;28;20138;-33
2022/04/04 09:00:48;;;;;;;0.20;0.20;;;;;;;19.40;35.87;100809.66;5120798;28;20485;-29
2022/04/04 09:03:19;;;;;;;0.20;0.20;;;;;;;19.43;35.82;100784.22;5118354;27;20057;-28
2022/04/04 09:05:54;;;;;;;0.20;0.20;;;;;;;19.41;35.58;100791.16;5103710;28;20537;-28
2022/04/04 09:08:23;;;;;;;0.20;0.20;;;;;;;19.41;35.54;100789.19;5104910;28;20043;-30
2022/04/04 09:10:54;;;;;;;0.20;0.20;;;;;;;19.42;35.84;100781.75;5105286;28;20535;-29
2022/04/04 09:13:20;;;;;;;0.20;0.20;;;;;;;19.42;35.49;100770.69;5092263;27;20071;-29
2022/04/04 09:16:03;;;;;;;0.20;0.20;;;;;;;19.42;35.56;100766.00;5122025;27;20716;-28
2022/04/04 09:18:42;;;;;;;0.20;0.20;;;;;;;19.43;35.73;100764.06;5104256;28;20074;-29
2022/04/04 09:21:10;;;;;;;0.20;0.20;;;;;;;19.44;35.73;100754.69;5123400;28;20113;-29
2022/04/04 09:23:54;;;;;;;0.20;0.20;;;;;;;19.42;35.58;100746.66;5127010;28;20126;-30
2022/04/04 09:26:32;;;;;;;0.20;0.20;;;;;;;19.48;35.53;100744.72;5110191;28;20192;-28
2022/04/04 09:29:16;;;;;;;0.20;0.20;;;;;;;19.51;35.56;100738.59;5103198;28;20126;-29
2022/04/04 09:32:05;;;;;;;0.20;0.20;;;;;;;19.50;35.50;100729.47;5107114;28;20558;-29
2022/04/04 09:35:00;;;;;;;0.20;0.20;;;;;;;19.50;35.35;100723.13;5108879;27;20486;-30
2022/04/04 09:37:29;;;;;;;0.20;0.20;;;;;;;19.51;35.41;100731.13;5106246;28;20142;-30
2022/04/04 09:40:12;;;;;;;0.20;0.20;;;;;;;19.51;35.40;100720.06;5100555;28;20146;-28
2022/04/04 09:42:42;;;;;;;0.20;0.20;;;;;;;19.54;35.54;100718.69;5092868;28;20291;-30
2022/04/04 09:45:09;;;;;;;0.20;0.20;;;;;;;19.53;35.60;100722.56;5099162;28;20577;-29
2022/04/04 09:47:53;;;;;;;0.20;0.20;;;;;;;19.53;35.47;100731.69;5114850;27;20046;-30
2022/04/04 09:50:46;;;;;;;0.20;0.20;;;;;;;19.54;35.37;100729.75;5102456;28;20369;-30
2022/04/04 09:53:32;;;;;;;0.20;0.20;;;;;;;19.55;35.19;100718.38;5108973;28;20447;-29
2022/04/04 09:56:00;;;;;;;0.20;0.20;;;;;;;19.55;35.19;100699.06;5102523;28;20067;-29
2022/04/04 09:58:28;;;;;;;0.20;0.20;;;;;;;19.57;35.16;100701.53;5101364;28;20070;-29
2022/04/04 10:00:55;;;;;;;0.20;0.20;;;;;;;19.57;35.24;100681.38;5086592;28;20165;-29
2022/04/04 10:03:22;;;;;;;0.20;0.20;;;;;;;19.59;35.31;100695.72;5085108;28;20299;-29
2022/04/04 10:05:55;;;;;;;0.20;0.20;;;;;;;19.58;35.35;100692.13;5116813;28;20043;-29
2022/04/04 10:08:24;;;;;;;0.20;0.20;;;;;;;19.58;35.10;100681.09;5100528;28;20168;-30
2022/04/04 10:10:50;;;;;;;0.20;0.20;;;;;;;19.60;35.19;100686.31;5095564;28;20142;-29
2022/04/04 10:13:16;;;;;;;0.20;0.20;;;;;;;19.60;35.18;100673.31;5098865;28;20067;-29
2022/04/04 10:15:43;;;;;;;0.20;0.20;;;;;;;19.61;35.09;100701.84;5098311;28;20085;-29
2022/04/04 10:18:10;;;;;;;0.20;0.20;;;;;;;19.63;34.95;100683.00;5117133;28;20039;-30
2022/04/04 10:20:36;;;;;;;0.20;0.20;;;;;;;19.63;34.96;100681.06;5101536;28;20598;-30
2022/04/04 10:23:03;;;;;;;0.20;0.20;;;;;;;19.63;34.71;100672.78;5119691;28;20080;-30
2022/04/04 10:25:32;;;;;;;0.20;0.20;;;;;;;19.64;35.09;100662.56;5095804;28;20096;-31
2022/04/04 10:27:59;;;;;;;0.20;0.20;;;;;;;19.63;34.71;100672.78;5100989;28;20146;-28
2022/04/04 10:30:35;;;;;;;0.20;0.20;;;;;;;19.64;34.84;100657.03;5110581;27;20130;-29
2022/04/04 10:33:00;;;;;;;0.20;0.20;;;;;;;19.64;34.77;100670.84;5120788;28;20058;-29
2022/04/04 10:35:28;;;;;;;0.20;0.20;;;;;;;19.63;35.08;100656.22;5114476;28;20051;-30
2022/04/04 10:37:57;;;;;;;0.20;0.20;;;;;;;19.65;34.98;100655.94;5090559;28;20410;-29
2022/04/04 10:40:25;;;;;;;0.20;0.20;;;;;;;19.63;35.19;100658.16;5090536;28;21557;-31
2022/04/04 10:43:13;;;;;;;0.20;0.20;;;;;;;19.64;35.18;100648.75;5096535;27;20493;-29
2022/04/04 10:45:59;;;;;;;;;;;;;;;19.62;34.80;100645.47;5091387;27;20063;-29
2022/04/04 10:48:29;;;;;;;0.20;0.20;;;;;;;19.61;34.91;100650.16;5101667;27;20366;-28
2022/04/04 10:51:00;;;;;;;0.20;0.20;;;;;;;19.62;35.16;100654.56;5106900;27;20131;-28
2022/04/04 10:54:01;;;;;;;0.20;0.20;;;;;;;19.60;34.93;100645.69;5111836;27;20370;-28
2022/04/04 10:56:28;;;;;;;0.20;0.20;;;;;;;19.54;34.80;100642.16;5098586;27;20183;-30
2022/04/04 11:01:52;;;;;;;0.20;0.20;;;;;;;19.58;34.62;100642.41;5136336;27;20226;-33
2022/04/04 11:04:27;;;;;;;0.20;0.20;;;;;;;19.66;34.94;100641.00;5125593;27;20093;-32
2022/04/04 11:07:42;;;;;;;0.20;0.20;;;;;;;19.68;34.68;100630.47;5130284;27;20051;-36
2022/04/04 11:10:00;;;;;;;0.20;0.20;;;;;;;19.69;34.90;100637.63;5114137;27;20044;-34
2022/04/04 11:12:28;;;;;;;0.20;0.20;;;;;;;19.69;35.12;100632.13;5133456;27;20077;-33
2022/04/04 11:15:08;;;;;;;0.20;0.20;;;;;;;19.69;34.96;100630.19;5133188;27;20118;-31
2022/04/04 11:17:57;;;;;;;0.20;0.20;;;;;;;19.71;35.06;100627.97;5129502;27;20302;-34
2022/04/04 11:20:31;;;;;;;0.20;0.20;;;;;;;19.72;34.85;100632.34;5116655;27;20525;-31
2022/04/04 11:23:00;;;;;;;0.20;0.20;;;;;;;19.73;35.12;100614.69;5137795;27;20130;-31
2022/04/04 11:25:34;;;;;;;2.92;0.40;;;;;;;19.74;34.81;100634.84;5117749;27;21822;-31
2022/04/04 11:28:04;;;;;;;0.20;0.20;;;;;;;19.75;34.85;100617.16;5138001;27;20125;-31
2022/04/04 11:30:29;;;;;;;0.20;0.20;;;;;;;19.75;34.70;100606.09;5125859;27;20150;-31
2022/04/04 11:32:57;;;;;;;0.20;0.20;;;;;;;19.76;35.18;100610.50;5137176;27;20051;-32